createdAt,value
2023-10-14T00:00:29.851Z,100074.38
2023-10-14T00:03:23.683Z,100080.50
2023-10-14T00:05:53.369Z,100077.13
2023-10-14T00:08:33.670Z,100077.41
2023-10-14T00:11:07.136Z,100070.72
2023-10-14T00:13:46.746Z,100077.94
2023-10-14T00:16:31.612Z,100079.78
2023-10-14T00:19:06.780Z,100081.63
2023-10-14T00:21:36.596Z,100088.78
2023-10-14T00:24:13.861Z,100084.59
2023-10-14T00:26:49.909Z,100080.44
2023-10-14T00:29:19.768Z,100085.88
2023-10-14T00:31:54.197Z,100085.06
2023-10-14T00:34:25.173Z,100084.50
2023-10-14T00:36:57.974Z,100084.63
2023-10-14T00:39:31.921Z,100084.75
2023-10-14T00:42:01.136Z,100088.34
2023-10-14T00:44:30.441Z,100085.03
2023-10-14T00:47:01.362Z,100083.50
2023-10-14T00:49:33.448Z,100077.47
2023-10-14T00:52:21.375Z,100081.97
2023-10-14T00:54:55.600Z,100075.28
2023-10-14T00:57:25.041Z,100081.47
2023-10-14T00:59:57.769Z,100078.16
2023-10-14T01:02:34.740Z,100087.78
2023-10-14T01:05:15.446Z,100080.13
2023-10-14T01:07:47.802Z,100083.69
2023-10-14T01:10:25.955Z,100086.34
2023-10-14T01:12:57.296Z,100077.06
2023-10-14T01:15:31.916Z,100084.97
2023-10-14T01:18:02.748Z,100086.19
2023-10-14T01:20:42.261Z,100084.97
2023-10-14T01:23:16.539Z,100094.63
2023-10-14T01:25:49.604Z,100091.31
2023-10-14T01:28:32.112Z,100096.53
2023-10-14T01:31:13.224Z,100094.13
2023-10-14T01:33:45.067Z,100082.28
2023-10-14T01:36:17.291Z,100093.63
2023-10-14T01:39:23.309Z,100087.53
2023-10-14T01:41:55.980Z,100085.97
2023-10-14T01:44:27.659Z,100089.59
2023-10-14T01:46:57.590Z,100094.03
2023-10-14T01:49:29.057Z,100082.00
2023-10-14T01:52:01.605Z,100077.88
2023-10-14T01:54:31.463Z,100077.91
2023-10-14T01:57:01.660Z,100075.41
2023-10-14T01:59:31.796Z,100070.31
2023-10-14T02:02:07.383Z,100079.16
2023-10-14T02:04:41.679Z,100079.31
2023-10-14T02:07:22.139Z,100076.22
2023-10-14T02:09:51.304Z,100071.53
2023-10-14T02:12:27.979Z,100072.75
2023-10-14T02:15:03.199Z,100072.03
2023-10-14T02:17:33.141Z,100069.66
2023-10-14T02:20:21.923Z,100064.56
2023-10-14T02:22:53.485Z,100071.53
2023-10-14T02:25:22.783Z,100070.75
2023-10-14T02:27:55.074Z,100077.69
2023-10-14T02:30:24.728Z,100076.81
2023-10-14T02:32:54.730Z,100076.09
2023-10-14T02:35:23.662Z,100084.75
2023-10-14T02:37:55.742Z,100085.59
2023-10-14T02:40:28.799Z,100102.06
2023-10-14T02:43:02.296Z,100099.53
2023-10-14T02:45:41.387Z,100084.88
2023-10-14T02:48:13.170Z,100079.78
2023-10-14T02:50:52.458Z,100071.22
2023-10-14T02:53:29.733Z,100067.88
2023-10-14T02:56:06.827Z,100057.56
2023-10-14T02:58:36.134Z,100066.25
2023-10-14T03:01:07.454Z,100065.47
2023-10-14T03:03:37.415Z,100062.09
2023-10-14T03:06:11.763Z,100069.88
2023-10-14T03:08:43.872Z,100082.19
2023-10-14T03:11:23.625Z,100079.63
2023-10-14T03:13:52.686Z,100086.50
2023-10-14T03:16:23.713Z,100081.41
2023-10-14T03:19:18.361Z,100075.28
2023-10-14T03:22:03.820Z,100070.19
2023-10-14T03:24:40.971Z,100067.50
2023-10-14T03:27:11.219Z,100077.94
2023-10-14T03:29:48.652Z,100074.44
2023-10-14T03:32:18.007Z,100072.81
2023-10-14T03:34:49.972Z,100069.28
2023-10-14T03:37:28.639Z,100068.47
2023-10-14T03:40:19.412Z,100052.94
2023-10-14T03:42:54.977Z,100057.31
2023-10-14T03:45:26.222Z,100048.72
2023-10-14T03:48:01.777Z,100044.44
2023-10-14T03:50:31.196Z,100051.41
2023-10-14T03:52:59.977Z,100041.88
2023-10-14T03:55:28.440Z,100034.09
2023-10-14T03:58:05.255Z,100030.69
2023-10-14T04:00:45.644Z,100041.06
2023-10-14T04:03:14.834Z,100037.69
2023-10-14T04:05:54.069Z,100035.94
2023-10-14T04:08:32.608Z,100035.88
2023-10-14T04:11:17.217Z,100035.00
2023-10-14T04:14:05.446Z,100034.91
2023-10-14T04:16:46.974Z,100034.91
2023-10-14T04:19:20.553Z,100027.19
2023-10-14T04:22:03.466Z,100028.03
2023-10-14T04:24:34.278Z,100022.00
2023-10-14T04:27:26.445Z,100015.22
2023-10-14T04:30:00.206Z,100013.44
2023-10-14T04:32:44.472Z,100009.06
2023-10-14T04:35:16.353Z,100016.03
2023-10-14T04:37:54.449Z,100004.84
2023-10-14T04:40:35.070Z,99991.81
2023-10-14T04:43:19.978Z,99989.22
2023-10-14T04:46:02.549Z,99981.44
2023-10-14T04:48:37.656Z,99983.25
2023-10-14T04:51:21.103Z,99978.84
2023-10-14T04:53:53.596Z,99977.91
2023-10-14T04:56:31.615Z,99969.19
2023-10-14T04:59:01.375Z,99970.06
2023-10-14T05:01:29.886Z,99965.66
2023-10-14T05:03:59.826Z,99962.16
2023-10-14T05:06:43.878Z,99958.66
2023-10-14T05:09:30.086Z,99949.06
2023-10-14T05:12:11.985Z,99938.78
2023-10-14T05:14:44.019Z,99943.75
2023-10-14T05:17:18.720Z,99939.47
2023-10-14T05:19:56.609Z,99933.50
2023-10-14T05:22:28.489Z,99929.19
2023-10-14T05:25:05.250Z,99924.19
2023-10-14T05:27:57.178Z,99920.63
2023-10-14T05:30:35.368Z,99906.75
2023-10-14T05:33:08.667Z,99915.44
2023-10-14T05:38:37.470Z,99912.06
2023-10-14T05:41:11.937Z,99903.44
2023-10-14T05:43:42.578Z,99911.31
2023-10-14T05:46:14.081Z,99908.72
2023-10-14T05:48:43.435Z,99905.13
2023-10-14T05:51:17.393Z,99893.16
2023-10-14T05:53:49.743Z,99901.66
2023-10-14T05:56:19.084Z,99900.00
2023-10-14T05:59:14.346Z,99902.53
2023-10-14T06:01:47.879Z,99895.03
2023-10-14T06:04:21.111Z,99893.38
2023-10-14T06:06:51.901Z,99896.25
2023-10-14T06:09:22.681Z,99896.25
2023-10-14T06:11:54.875Z,99895.53
2023-10-14T06:14:24.749Z,99894.81
2023-10-14T06:16:54.026Z,99890.66
2023-10-14T06:19:23.098Z,99895.91
2023-10-14T06:21:52.580Z,99899.41
2023-10-14T06:24:22.122Z,99890.81
2023-10-14T06:26:50.722Z,99886.63
2023-10-14T06:29:19.502Z,99882.44
2023-10-14T06:31:51.210Z,99873.03
2023-10-14T06:34:24.113Z,99873.97
2023-10-14T06:36:54.253Z,99866.31
2023-10-14T06:39:28.117Z,99862.09
2023-10-14T06:41:57.493Z,99858.59
2023-10-14T06:44:31.274Z,99840.63
2023-10-14T06:47:04.754Z,99829.56
2023-10-14T06:49:38.649Z,99835.56
2023-10-14T06:52:08.275Z,99839.34
2023-10-14T06:54:38.286Z,99823.38
2023-10-14T06:57:09.471Z,99819.16
2023-10-14T06:59:39.573Z,99807.16
2023-10-14T07:02:12.942Z,99803.75
2023-10-14T07:04:43.252Z,99799.47
2023-10-14T07:07:15.460Z,99800.25
2023-10-14T07:09:46.361Z,99788.19
2023-10-14T07:12:16.140Z,99780.34
2023-10-14T07:14:48.637Z,99777.81
2023-10-14T07:17:24.468Z,99786.38
2023-10-14T07:19:53.458Z,99780.22
2023-10-14T07:22:23.077Z,99772.41
2023-10-14T07:24:54.703Z,99768.00
2023-10-14T07:27:25.632Z,99763.63
2023-10-14T07:29:54.503Z,99750.69
2023-10-14T07:32:30.435Z,99738.63
2023-10-14T07:35:04.240Z,99745.50
2023-10-14T07:37:35.689Z,99735.13
2023-10-14T07:40:13.417Z,99730.94
2023-10-14T07:42:43.853Z,99744.78
2023-10-14T07:45:16.108Z,99747.38
2023-10-14T07:47:45.287Z,99744.72
2023-10-14T07:50:17.933Z,99711.94
2023-10-14T07:52:47.544Z,99691.19
2023-10-14T07:55:24.258Z,99673.97
2023-10-14T07:57:57.682Z,99691.19
2023-10-14T08:00:38.629Z,99703.31
2023-10-14T08:03:16.785Z,99699.88
2023-10-14T08:05:51.819Z,99713.75
2023-10-14T08:08:27.828Z,99727.50
2023-10-14T08:10:59.313Z,99731.75
2023-10-14T08:13:29.203Z,99723.31
2023-10-14T08:15:59.858Z,99717.41
2023-10-14T08:18:33.589Z,99723.16
2023-10-14T08:21:05.520Z,99715.38
2023-10-14T08:23:35.059Z,99701.63
2023-10-14T08:26:05.283Z,99707.59
2023-10-14T08:28:35.694Z,99710.13
2023-10-14T08:31:06.479Z,99711.88
2023-10-14T08:33:38.254Z,99704.03
2023-10-14T08:36:08.472Z,99716.94
2023-10-14T08:38:38.355Z,99720.38
2023-10-14T08:41:08.315Z,99716.00
2023-10-14T08:43:43.832Z,99708.25
2023-10-14T08:46:16.639Z,99697.88
2023-10-14T08:48:49.025Z,99693.53
2023-10-14T08:51:20.573Z,99695.22
2023-10-14T08:53:55.033Z,99688.28
2023-10-14T08:56:27.110Z,99685.69
2023-10-14T08:58:56.804Z,99688.28
2023-10-14T09:01:27.258Z,99682.38
2023-10-14T09:04:01.659Z,99687.31
2023-10-14T09:06:33.184Z,99691.56
2023-10-14T09:09:18.881Z,99681.97
2023-10-14T09:11:48.327Z,99673.41
2023-10-14T09:14:21.234Z,99677.78
2023-10-14T09:16:51.455Z,99679.47
2023-10-14T09:19:23.932Z,99677.78
2023-10-14T09:21:59.154Z,99668.25
2023-10-14T09:24:28.311Z,99677.69
2023-10-14T09:27:00.183Z,99680.28
2023-10-14T09:29:29.046Z,99680.28
2023-10-14T09:32:01.644Z,99671.69
2023-10-14T09:34:32.365Z,99656.03
2023-10-14T09:37:19.302Z,99653.44
2023-10-14T09:40:04.822Z,99660.34
2023-10-14T09:42:35.295Z,99662.94
2023-10-14T09:45:15.087Z,99662.78
2023-10-14T09:47:47.949Z,99663.66
2023-10-14T09:50:18.785Z,99662.66
2023-10-14T09:52:54.419Z,99673.94
2023-10-14T09:55:23.986Z,99672.00
2023-10-14T09:57:58.619Z,99672.75
2023-10-14T10:00:28.876Z,99658.06
2023-10-14T10:02:58.463Z,99654.50
2023-10-14T10:05:46.888Z,99659.69
2023-10-14T10:08:37.244Z,99662.84
2023-10-14T10:11:08.156Z,99662.91
2023-10-14T10:13:37.910Z,99653.53
2023-10-14T10:16:07.782Z,99659.47
2023-10-14T10:18:59.920Z,99676.53
2023-10-14T10:21:33.424Z,99668.75
2023-10-14T10:24:15.691Z,99659.22
2023-10-14T10:27:01.255Z,99650.38
2023-10-14T10:29:30.228Z,99639.53
2023-10-14T10:32:21.547Z,99639.19
2023-10-14T10:35:12.539Z,99632.22
2023-10-14T10:37:57.018Z,99634.00
2023-10-14T10:40:28.475Z,99624.53
2023-10-14T10:43:13.679Z,99621.94
2023-10-14T10:46:42.153Z,99615.75
2023-10-14T10:49:13.739Z,99601.19
2023-10-14T10:52:16.030Z,99612.28
2023-10-14T10:54:46.455Z,99608.06
2023-10-14T10:57:20.491Z,99609.81
2023-10-14T10:59:50.023Z,99620.13
2023-10-14T11:02:23.159Z,99608.88
2023-10-14T11:04:53.629Z,99614.88
2023-10-14T11:07:25.091Z,99607.97
2023-10-14T11:09:55.858Z,99601.03
2023-10-14T11:12:28.031Z,99592.34
2023-10-14T11:15:03.506Z,99586.34
2023-10-14T11:18:01.376Z,99584.34
2023-10-14T11:20:47.285Z,99579.44
2023-10-14T11:23:18.147Z,99585.47
2023-10-14T11:25:49.691Z,99585.44
2023-10-14T11:28:20.460Z,99590.53
2023-10-14T11:30:50.144Z,99586.25
2023-10-14T11:33:31.507Z,99581.97
2023-10-14T11:36:00.794Z,99576.72
2023-10-14T11:38:31.373Z,99587.16
2023-10-14T11:41:27.005Z,99597.97
2023-10-14T11:43:56.881Z,99588.16
2023-10-14T11:46:26.818Z,99582.63
2023-10-14T11:48:56.044Z,99567.31
2023-10-14T11:51:27.458Z,99568.94
2023-10-14T11:54:00.269Z,99556.81
2023-10-14T11:56:29.463Z,99559.41
2023-10-14T11:59:03.134Z,99568.88
2023-10-14T12:01:38.000Z,99565.28
2023-10-14T12:04:07.688Z,99558.41
2023-10-14T12:06:39.388Z,99553.59
2023-10-14T12:09:12.389Z,99576.56
2023-10-14T12:11:44.376Z,99568.59
2023-10-14T12:14:18.370Z,99570.34
2023-10-14T12:16:51.931Z,99561.66
2023-10-14T12:19:21.272Z,99559.00
2023-10-14T12:21:55.256Z,99558.03
2023-10-14T12:24:26.896Z,99561.66
2023-10-14T12:26:55.640Z,99569.38
2023-10-14T12:29:26.856Z,99546.94
2023-10-14T12:32:17.355Z,99526.19
2023-10-14T12:34:49.826Z,99526.09
2023-10-14T12:37:26.602Z,99505.44
2023-10-14T12:40:06.119Z,99522.97
2023-10-14T12:42:49.478Z,99515.03
2023-10-14T12:45:24.964Z,99515.88
2023-10-14T12:48:00.600Z,99528.84
2023-10-14T12:50:29.857Z,99544.41
2023-10-14T12:53:01.101Z,99544.34
2023-10-14T12:55:32.455Z,99554.72
2023-10-14T12:58:03.635Z,99542.53
2023-10-14T13:00:32.981Z,99543.44
2023-10-14T13:03:11.859Z,99545.94
2023-10-14T13:05:41.038Z,99545.88
2023-10-14T13:08:17.189Z,99536.75
2023-10-14T13:10:47.681Z,99515.84
2023-10-14T13:13:18.499Z,99510.25
2023-10-14T13:15:51.820Z,99510.47
2023-10-14T13:18:25.929Z,99503.59
2023-10-14T13:21:02.754Z,99493.28
2023-10-14T13:23:32.112Z,99495.81
2023-10-14T13:26:01.682Z,99487.19
2023-10-14T13:28:34.296Z,99480.25
2023-10-14T13:31:18.467Z,99486.19
2023-10-14T13:33:49.741Z,99471.50
2023-10-14T13:36:22.316Z,99466.38
2023-10-14T13:38:54.744Z,99468.19
2023-10-14T13:41:34.142Z,99462.22
2023-10-14T13:44:06.756Z,99449.25
2023-10-14T13:46:36.393Z,99439.78
2023-10-14T13:49:06.282Z,99436.22
2023-10-14T13:51:37.228Z,99432.81
2023-10-14T13:54:06.786Z,99439.50
2023-10-14T13:56:37.352Z,99434.31
2023-10-14T13:59:06.857Z,99439.50
2023-10-14T14:01:38.011Z,99442.84
2023-10-14T14:04:12.951Z,99445.38
2023-10-14T14:06:45.272Z,99443.72
2023-10-14T14:09:25.402Z,99432.56
2023-10-14T14:12:24.235Z,99442.72
2023-10-14T14:14:57.944Z,99438.53
2023-10-14T14:17:31.096Z,99422.03
2023-10-14T14:20:00.645Z,99413.28
2023-10-14T14:22:30.745Z,99408.91
2023-10-14T14:25:02.323Z,99414.78
2023-10-14T14:27:35.210Z,99405.41
2023-10-14T14:30:12.073Z,99400.06
2023-10-14T14:33:16.158Z,99392.91
2023-10-14T14:36:15.294Z,99387.63
2023-10-14T14:39:01.995Z,99373.91
2023-10-14T14:41:46.965Z,99372.16
2023-10-14T14:44:21.401Z,99370.47
2023-10-14T14:46:52.885Z,99361.78
2023-10-14T14:49:25.827Z,99357.41
2023-10-14T14:51:56.264Z,99345.22
2023-10-14T14:54:26.077Z,99344.28
2023-10-14T14:56:58.294Z,99345.03
2023-10-14T14:59:28.328Z,99340.72
2023-10-14T15:01:59.422Z,99336.28
2023-10-14T15:04:31.595Z,99337.03
2023-10-14T15:07:02.231Z,99330.16
2023-10-14T15:09:33.754Z,99327.56
2023-10-14T15:12:07.136Z,99339.56
2023-10-14T15:14:41.434Z,99325.66
2023-10-14T15:17:12.341Z,99318.72
2023-10-14T15:19:44.571Z,99316.94
2023-10-14T15:22:15.639Z,99314.41
2023-10-14T15:24:45.782Z,99309.16
2023-10-14T15:27:15.282Z,99293.53
2023-10-14T15:29:51.605Z,99297.78
2023-10-14T15:32:20.989Z,99297.72
2023-10-14T15:34:53.846Z,99277.88
2023-10-14T15:37:29.597Z,99261.97
2023-10-14T15:40:04.279Z,99247.22
2023-10-14T15:43:30.217Z,99250.25
2023-10-14T15:46:15.338Z,99237.53
2023-10-14T15:48:53.502Z,99237.28
2023-10-14T15:51:22.657Z,99229.56
2023-10-14T15:53:55.468Z,99228.50
2023-10-14T15:56:26.518Z,99227.44
2023-10-14T15:59:05.286Z,99221.22
2023-10-14T16:01:39.471Z,99218.53
2023-10-14T16:04:17.619Z,99219.28
2023-10-14T16:06:56.661Z,99216.53
2023-10-14T16:09:28.328Z,99219.06
2023-10-14T16:11:58.062Z,99212.13
2023-10-14T16:14:28.429Z,99212.78
2023-10-14T16:16:57.881Z,99207.53
2023-10-14T16:19:28.491Z,99206.59
2023-10-14T16:22:00.140Z,99203.81
2023-10-14T16:24:30.962Z,99185.56
2023-10-14T16:27:01.092Z,99176.84
2023-10-14T16:29:30.326Z,99171.56
2023-10-14T16:32:01.901Z,99167.13
2023-10-14T16:34:31.647Z,99150.63
2023-10-14T16:37:02.150Z,99152.28
2023-10-14T16:39:31.798Z,99140.91
2023-10-14T16:42:05.743Z,99139.88
2023-10-14T16:44:38.602Z,99127.81
2023-10-14T16:47:16.927Z,99127.56
2023-10-14T16:49:53.692Z,99119.81
2023-10-14T16:52:30.198Z,99113.38
2023-10-14T16:55:05.165Z,99105.78
2023-10-14T16:57:36.763Z,99088.44
2023-10-14T17:00:14.536Z,99091.78
2023-10-14T17:02:49.503Z,99088.16
2023-10-14T17:05:20.754Z,99074.25
2023-10-14T17:08:03.209Z,99060.31
2023-10-14T17:10:37.044Z,99041.13
2023-10-14T17:13:15.040Z,99044.47
2023-10-14T17:15:48.863Z,99042.59
2023-10-14T17:18:18.679Z,99036.41
2023-10-14T17:20:50.105Z,99030.38
2023-10-14T17:23:22.654Z,99029.38
2023-10-14T17:25:54.625Z,99017.19
2023-10-14T17:28:24.080Z,99000.88
2023-10-14T17:30:56.416Z,99003.25
2023-10-14T17:33:25.322Z,98992.72
2023-10-14T17:35:56.616Z,98972.66
2023-10-14T17:38:30.169Z,98975.16
2023-10-14T17:43:56.848Z,98971.53
2023-10-14T17:46:26.937Z,98955.56
2023-10-14T17:48:57.126Z,98950.56
2023-10-14T17:51:27.724Z,98952.22
2023-10-14T17:53:57.363Z,98949.53
2023-10-14T17:56:27.130Z,98947.69
2023-10-14T17:58:58.699Z,98955.19
2023-10-14T18:01:28.121Z,98948.25
2023-10-14T18:03:57.614Z,98938.50
2023-10-14T18:06:28.162Z,98934.22
2023-10-14T18:09:15.343Z,98930.31
2023-10-14T18:11:47.720Z,98924.25
2023-10-14T18:14:21.716Z,98912.00
2023-10-14T18:17:03.178Z,98907.56
2023-10-14T18:19:33.047Z,98890.16
2023-10-14T18:22:02.059Z,98877.09
2023-10-14T18:24:34.671Z,98885.63
2023-10-14T18:27:09.024Z,98869.19
2023-10-14T18:29:41.737Z,98873.47
2023-10-14T18:32:13.825Z,98872.44
2023-10-14T18:34:43.433Z,98869.72
2023-10-14T18:37:14.485Z,98859.44
2023-10-14T18:39:51.603Z,98868.69
2023-10-14T18:42:21.395Z,98866.00
2023-10-14T18:44:50.333Z,98864.13
2023-10-14T18:47:19.690Z,98867.56
2023-10-14T18:49:48.679Z,98858.09
2023-10-14T18:52:18.307Z,98851.97
2023-10-14T18:54:50.665Z,98850.09
2023-10-14T18:57:19.546Z,98844.91
2023-10-14T18:59:50.958Z,98842.94
2023-10-14T19:02:21.642Z,98837.72
2023-10-14T19:04:51.174Z,98837.81
2023-10-14T19:07:20.868Z,98834.19
2023-10-14T19:09:50.007Z,98832.31
2023-10-14T19:12:18.843Z,98829.72
2023-10-14T19:14:49.191Z,98831.50
2023-10-14T19:17:19.248Z,98822.78
2023-10-14T19:19:49.708Z,98811.44
2023-10-14T19:22:19.480Z,98808.75
2023-10-14T19:24:48.396Z,98800.09
2023-10-14T19:27:24.719Z,98798.34
2023-10-14T19:30:00.295Z,98799.16
2023-10-14T19:32:29.767Z,98795.66
2023-10-14T19:35:04.175Z,98792.13
2023-10-14T19:37:39.366Z,98773.78
2023-10-14T19:40:16.564Z,98775.47
2023-10-14T19:42:53.947Z,98771.09
2023-10-14T19:45:35.734Z,98764.00
2023-10-14T19:48:09.383Z,98756.22
2023-10-14T19:50:47.068Z,98747.50
2023-10-14T19:53:19.986Z,98742.16
2023-10-14T19:55:49.351Z,98744.75
2023-10-14T19:58:19.612Z,98740.41
2023-10-14T20:00:51.167Z,98730.94
2023-10-14T20:03:21.417Z,98730.00
2023-10-14T20:05:53.683Z,98731.56
2023-10-14T20:08:29.570Z,98732.38
2023-10-14T20:11:01.175Z,98728.84
2023-10-14T20:13:31.371Z,98721.03
2023-10-14T20:16:04.149Z,98719.19
2023-10-14T20:18:37.917Z,98716.47
2023-10-14T20:21:07.616Z,98722.41
2023-10-14T20:23:36.998Z,98712.94
2023-10-14T20:26:14.723Z,98719.81
2023-10-14T20:28:47.588Z,98716.28
2023-10-14T20:31:23.711Z,98720.63
2023-10-14T20:33:54.834Z,98718.97
2023-10-14T20:36:25.865Z,98727.50
2023-10-14T20:39:30.247Z,98723.66
2023-10-14T20:42:01.188Z,98721.38
2023-10-14T20:44:34.442Z,98727.31
2023-10-14T20:47:03.363Z,98705.66
2023-10-14T20:49:33.247Z,98685.66
2023-10-14T20:52:02.215Z,98673.59
2023-10-14T20:54:31.361Z,98678.81
2023-10-14T20:57:00.380Z,98680.47
2023-10-14T20:59:29.094Z,98674.31
2023-10-14T21:02:01.219Z,98670.78
2023-10-14T21:04:35.226Z,98666.41
2023-10-14T21:07:04.941Z,98666.50
2023-10-14T21:09:34.771Z,98669.75
2023-10-14T21:12:07.266Z,98658.59
2023-10-14T21:14:36.209Z,98661.84
2023-10-14T21:17:06.686Z,98664.53
2023-10-14T21:19:35.418Z,98672.25
2023-10-14T21:22:04.489Z,98672.13
2023-10-14T21:24:42.815Z,98672.03
2023-10-14T21:27:20.882Z,98676.28
2023-10-14T21:29:52.160Z,98668.47
2023-10-14T21:32:22.487Z,98668.47
2023-10-14T21:34:54.757Z,98665.78
2023-10-14T21:37:27.021Z,98657.03
2023-10-14T21:39:58.816Z,98657.03
2023-10-14T21:42:30.428Z,98652.75
2023-10-14T21:44:59.603Z,98653.72
2023-10-14T21:47:28.679Z,98650.25
2023-10-14T21:49:57.958Z,98647.66
2023-10-14T21:55:21.522Z,98627.69
2023-10-14T21:57:52.353Z,98630.16
2023-10-14T22:00:52.697Z,98631.00
2023-10-14T22:03:22.973Z,98628.41
2023-10-14T22:05:55.074Z,98624.94
2023-10-14T22:08:27.745Z,98619.75
2023-10-14T22:10:57.572Z,98602.28
2023-10-14T22:13:26.905Z,98604.03
2023-10-14T22:15:55.469Z,98601.53
2023-10-14T22:18:25.911Z,98596.31
2023-10-14T22:20:54.755Z,98591.34
2023-10-14T22:23:24.460Z,98588.50
2023-10-14T22:25:58.532Z,98572.50
2023-10-14T22:28:27.785Z,98579.66
2023-10-14T22:30:56.572Z,98578.84
2023-10-14T22:33:26.026Z,98579.03
2023-10-14T22:35:57.480Z,98581.16
2023-10-14T22:38:29.250Z,98583.31
2023-10-14T22:40:59.316Z,98576.25
2023-10-14T22:43:52.798Z,98568.63
2023-10-14T22:46:23.736Z,98565.94
2023-10-14T22:48:52.616Z,98564.19
2023-10-14T22:51:24.007Z,98575.41
2023-10-14T22:53:54.064Z,98554.81
2023-10-14T22:56:26.755Z,98552.19
2023-10-14T22:58:56.408Z,98562.47
2023-10-14T23:01:30.653Z,98565.94
2023-10-14T23:04:00.572Z,98557.19
2023-10-14T23:06:33.699Z,98550.94
2023-10-14T23:09:07.072Z,98555.28
2023-10-14T23:11:36.849Z,98557.91
2023-10-14T23:14:06.262Z,98565.59
2023-10-14T23:16:35.492Z,98562.28
2023-10-14T23:19:05.794Z,98568.31
2023-10-14T23:21:35.569Z,98581.22
2023-10-14T23:24:07.886Z,98581.13
2023-10-14T23:26:45.933Z,98583.81
2023-10-14T23:29:14.853Z,98578.84
2023-10-14T23:31:44.002Z,98564.19
2023-10-14T23:34:14.962Z,98575.81
2023-10-14T23:36:45.837Z,98584.47
2023-10-14T23:39:18.898Z,98576.88
2023-10-14T23:41:47.825Z,98576.25
2023-10-14T23:44:19.793Z,98575.06
2023-10-14T23:46:52.981Z,98578.84
2023-10-14T23:49:22.235Z,98578.84
2023-10-14T23:51:51.589Z,98582.34
2023-10-14T23:54:26.695Z,98583.56
2023-10-14T23:56:56.244Z,98585.84
2023-10-14T23:59:27.484Z,98587.81
